Time;durP1;ratioP1;P1;durP2;ratioP2;P2;SDS_P1;SDS_P2;PMS_P1;PMS_P2;Temp;Humidity;BMP_temperature;BMP_pressure;BME280_temperature;BME280_humidity;BME280_pressure;Samples;Min_cycle;Max_cycle;Signal;HPM_P1;HPM_P2
2022/01/11 00:01:33;;;;;;;34.50;13.23;;;14.60;73.10;;;;;;4118872;28;20104;-65
2022/01/11 00:03:57;;;;;;;33.88;12.90;;;14.60;73.40;;;;;;4128924;28;20046;-64
2022/01/11 00:06:30;;;;;;;30.08;12.98;;;14.60;73.40;;;;;;4128489;28;20116;-65
2022/01/11 00:08:54;;;;;;;31.52;11.80;;;14.70;73.40;;;;;;4134407;28;20055;-65
2022/01/11 00:11:19;;;;;;;29.73;12.15;;;14.80;73.00;;;;;;4112333;28;20055;-65
2022/01/11 00:13:43;;;;;;;27.33;12.45;;;14.80;72.50;;;;;;4112336;28;20058;-64
2022/01/11 00:16:08;;;;;;;29.90;13.32;;;14.90;72.40;;;;;;4112776;28;20059;-64
2022/01/11 00:18:31;;;;;;;30.13;12.88;;;14.90;72.10;;;;;;4096907;28;20055;-65
2022/01/11 00:20:55;;;;;;;28.63;11.85;;;14.90;72.00;;;;;;4096751;28;20118;-65
2022/01/11 00:25:59;;;;;;;27.42;12.43;;;14.90;71.80;;;;;;4095858;28;20054;-64
2022/01/11 00:28:25;;;;;;;25.27;12.27;;;14.90;72.00;;;;;;4126738;28;20533;-64
2022/01/11 00:31:08;;;;;;;30.73;12.35;;;15.00;71.60;;;;;;4121204;28;20054;-64
2022/01/11 00:33:36;;;;;;;30.17;12.05;;;15.00;71.30;;;;;;4110729;28;20473;-64
2022/01/11 00:35:59;;;;;;;25.67;11.95;;;15.00;71.20;;;;;;4111242;28;20105;-65
2022/01/11 00:38:22;;;;;;;25.63;12.15;;;15.00;71.20;;;;;;4112044;28;20093;-64
2022/01/11 00:40:47;;;;;;;24.75;11.35;;;15.00;70.90;;;;;;4094672;28;20051;-65
2022/01/11 00:43:10;;;;;;;26.45;11.98;;;15.10;70.90;;;;;;4094809;28;20468;-65
2022/01/11 00:45:34;;;;;;;25.45;11.10;;;15.00;70.90;;;;;;4094971;28;20483;-65
2022/01/11 00:47:58;;;;;;;21.45;11.10;;;15.10;71.10;;;;;;4096572;28;20055;-64
2022/01/11 00:50:21;;;;;;;26.30;11.45;;;15.00;71.00;;;;;;4095643;28;20051;-65
2022/01/11 00:52:44;;;;;;;22.98;11.18;;;15.00;70.90;;;;;;4127320;28;20058;-65
2022/01/11 00:55:08;;;;;;;16.65;10.95;;;15.00;71.20;;;;;;4128058;28;20050;-64
2022/01/11 00:57:31;;;;;;;23.35;10.25;;;15.00;71.10;;;;;;4140547;28;20115;-64
2022/01/11 00:59:56;;;;;;;26.30;10.45;;;15.00;70.90;;;;;;4116680;28;20454;-64
2022/01/11 01:02:21;;;;;;;26.40;11.18;;;14.90;71.00;;;;;;4110386;28;20058;-64
2022/01/11 01:04:44;;;;;;;30.30;11.50;;;14.90;71.10;;;;;;4111860;28;20454;-65
2022/01/11 01:07:07;;;;;;;38.22;11.73;;;14.90;71.10;;;;;;4111850;28;20059;-64
2022/01/11 01:09:39;;;;;;;20.15;10.77;;;14.90;71.00;;;;;;4118009;28;20108;-64
2022/01/11 01:12:03;;;;;;;18.73;11.00;;;14.90;70.70;;;;;;4109981;28;20050;-64
2022/01/11 01:14:27;;;;;;;26.73;11.90;;;15.00;71.10;;;;;;4110103;28;20074;-65
2022/01/11 01:16:50;;;;;;;20.77;10.85;;;15.00;70.90;;;;;;4110584;28;20050;-66
2022/01/11 01:19:30;;;;;;;19.63;11.45;;;15.00;70.80;;;;;;4100339;28;20404;-65
2022/01/11 01:21:54;;;;;;;23.42;11.30;;;15.10;70.50;;;;;;4111837;28;20060;-65
2022/01/11 01:24:17;;;;;;;17.92;11.63;;;15.10;70.50;;;;;;4111666;28;20105;-65
2022/01/11 01:26:41;;;;;;;24.40;12.07;;;15.10;70.40;;;;;;4110318;28;20058;-65
2022/01/11 01:29:04;;;;;;;25.95;11.73;;;15.10;70.30;;;;;;4111072;28;20480;-65
2022/01/11 01:31:27;;;;;;;28.05;12.05;;;15.10;70.30;;;;;;4111254;28;20789;-65
2022/01/11 01:33:50;;;;;;;26.35;11.70;;;15.00;70.30;;;;;;4111577;28;20582;-64
2022/01/11 01:36:15;;;;;;;30.65;10.85;;;15.00;70.40;;;;;;4110055;28;20051;-65
2022/01/11 01:38:38;;;;;;;31.30;12.00;;;14.90;70.30;;;;;;4114959;28;20097;-64
2022/01/11 01:41:10;;;;;;;28.48;11.65;;;14.90;70.50;;;;;;4111232;28;20050;-65
2022/01/11 01:43:32;;;;;;;17.63;10.80;;;14.90;71.00;;;;;;4111285;28;20054;-64
2022/01/11 01:45:59;;;;;;;29.50;11.93;;;14.90;71.20;;;;;;4126057;28;20551;-64
2022/01/11 01:48:21;;;;;;;19.17;11.18;;;14.90;71.50;;;;;;4126423;28;20053;-64
2022/01/11 01:50:45;;;;;;;31.52;11.55;;;15.10;71.00;;;;;;4116533;28;20058;-65
2022/01/11 01:53:12;;;;;;;29.13;11.93;;;15.20;70.20;;;;;;4109404;28;20055;-65
2022/01/11 01:55:35;;;;;;;29.65;12.18;;;15.40;69.40;;;;;;4109764;28;20088;-65
2022/01/11 01:57:58;;;;;;;20.00;11.23;;;15.50;68.70;;;;;;4123677;28;20049;-65
2022/01/11 02:00:23;;;;;;;21.63;11.30;;;15.60;68.40;;;;;;4122997;28;20580;-65
2022/01/11 02:02:47;;;;;;;34.40;11.52;;;15.60;68.30;;;;;;4093898;28;20051;-65
2022/01/11 02:05:10;;;;;;;33.08;11.75;;;15.60;68.10;;;;;;4107532;28;20047;-65
2022/01/11 02:07:33;;;;;;;26.98;11.77;;;15.70;67.90;;;;;;4098501;28;20094;-65
2022/01/11 02:09:57;;;;;;;29.33;11.43;;;15.70;67.80;;;;;;4123082;28;20148;-64
2022/01/11 02:12:20;;;;;;;20.17;11.00;;;15.70;67.60;;;;;;4123486;28;20058;-64
2022/01/11 02:14:43;;;;;;;31.20;11.45;;;15.60;67.40;;;;;;4109857;28;20051;-64
2022/01/11 02:17:06;;;;;;;29.25;11.07;;;15.60;67.50;;;;;;4124339;28;20054;-64
2022/01/11 02:19:29;;;;;;;21.65;10.70;;;15.50;67.80;;;;;;4094961;28;20134;-64
2022/01/11 02:21:54;;;;;;;30.58;11.35;;;15.50;68.10;;;;;;4093513;28;20055;-64
2022/01/11 02:24:19;;;;;;;37.08;10.18;;;15.50;68.40;;;;;;4092958;28;20059;-64
2022/01/11 02:26:42;;;;;;;20.77;10.50;;;15.50;68.30;;;;;;4115902;28;20548;-64
2022/01/11 02:29:05;;;;;;;32.85;10.43;;;15.60;67.90;;;;;;4124929;28;20054;-64
2022/01/11 02:31:28;;;;;;;25.73;11.07;;;15.60;67.70;;;;;;4109307;28;20055;-64
2022/01/11 02:33:58;;;;;;;43.58;11.98;;;15.60;67.60;;;;;;4109004;28;20072;-64
2022/01/11 02:36:38;;;;;;;31.45;11.80;;;15.60;68.60;;;;;;4120995;28;20054;-64
2022/01/11 02:39:19;;;;;;;29.63;12.15;;;15.70;67.90;;;;;;4124575;28;20450;-64
2022/01/11 02:41:52;;;;;;;27.67;11.77;;;15.80;67.40;;;;;;4122652;28;20050;-65
2022/01/11 02:44:20;;;;;;;44.42;11.45;;;15.80;66.80;;;;;;4129901;28;20085;-64
2022/01/11 02:46:43;;;;;;;33.13;11.98;;;15.90;66.80;;;;;;4109877;28;20121;-64
2022/01/11 02:49:06;;;;;;;29.90;11.55;;;15.80;66.50;;;;;;4110559;28;20474;-64
2022/01/11 02:51:34;;;;;;;42.30;12.93;;;15.80;66.40;;;;;;4108893;28;20105;-64
2022/01/11 02:53:59;;;;;;;44.15;11.68;;;15.80;66.40;;;;;;4093270;28;20055;-64
2022/01/11 02:56:24;;;;;;;34.10;11.98;;;15.80;66.50;;;;;;4094519;28;20504;-64
2022/01/11 02:58:48;;;;;;;51.00;13.00;;;15.80;66.70;;;;;;4093319;28;20090;-64
2022/01/11 03:01:13;;;;;;;36.17;12.13;;;15.70;66.90;;;;;;4102805;28;20046;-64
2022/01/11 03:03:37;;;;;;;34.22;12.20;;;15.80;66.90;;;;;;4109437;28;20047;-64
2022/01/11 03:06:02;;;;;;;31.33;12.00;;;15.80;66.60;;;;;;4094076;28;20075;-64
2022/01/11 03:08:31;;;;;;;39.55;11.48;;;15.80;66.40;;;;;;4092627;28;20086;-64
2022/01/11 03:10:55;;;;;;;32.72;12.18;;;15.90;66.40;;;;;;4092273;28;20185;-64
2022/01/11 03:13:20;;;;;;;31.27;11.93;;;15.90;66.20;;;;;;4105590;28;20514;-62
2022/01/11 03:15:47;;;;;;;32.60;13.13;;;16.00;66.00;;;;;;4108900;28;20087;-62
2022/01/11 03:18:10;;;;;;;32.35;12.32;;;16.00;65.60;;;;;;4115022;28;20454;-62
2022/01/11 03:20:40;;;;;;;34.28;13.02;;;16.10;65.30;;;;;;4108757;28;20051;-62
2022/01/11 03:23:05;;;;;;;32.17;13.63;;;16.20;65.20;;;;;;4122161;28;20141;-63
2022/01/11 03:25:28;;;;;;;33.90;13.65;;;16.20;65.00;;;;;;4122705;28;20058;-62
2022/01/11 03:27:51;;;;;;;31.80;13.98;;;16.10;65.10;;;;;;4125315;28;20096;-62
2022/01/11 03:30:18;;;;;;;33.65;13.75;;;16.10;65.10;;;;;;4138370;28;20057;-62
2022/01/11 03:32:44;;;;;;;31.08;14.75;;;16.10;65.30;;;;;;4124610;28;20112;-61
2022/01/11 03:35:16;;;;;;;31.83;13.90;;;16.10;65.10;;;;;;4107808;28;20062;-62
2022/01/11 03:37:41;;;;;;;25.75;14.35;;;16.20;65.00;;;;;;4111343;28;20471;-62
2022/01/11 03:40:05;;;;;;;39.53;15.70;;;16.20;64.90;;;;;;4117762;28;20054;-62
2022/01/11 03:42:28;;;;;;;37.08;15.45;;;16.20;64.90;;;;;;4127975;28;20050;-62
2022/01/11 03:44:52;;;;;;;32.92;15.07;;;16.20;64.90;;;;;;4127966;28;20057;-62
2022/01/11 03:47:16;;;;;;;32.10;14.48;;;16.20;64.70;;;;;;4129472;28;20053;-61
2022/01/11 03:49:39;;;;;;;33.50;16.25;;;16.20;64.50;;;;;;4129262;28;20050;-62
2022/01/11 03:52:02;;;;;;;33.75;15.70;;;16.10;64.80;;;;;;4116013;28;20124;-62
2022/01/11 03:54:28;;;;;;;32.33;16.15;;;16.10;64.90;;;;;;4128480;28;20093;-61
2022/01/11 03:57:11;;;;;;;33.80;15.70;;;16.00;65.00;;;;;;4127343;28;20069;-62
2022/01/11 03:59:38;;;;;;;32.17;15.27;;;16.00;65.40;;;;;;4123466;28;20051;-62
2022/01/11 04:02:02;;;;;;;32.03;15.20;;;15.90;65.50;;;;;;4125248;28;20054;-62
2022/01/11 04:04:26;;;;;;;47.08;16.48;;;15.90;65.70;;;;;;4125252;28;20054;-62
2022/01/11 04:06:50;;;;;;;36.95;16.33;;;15.90;65.60;;;;;;4125106;28;20046;-63
2022/01/11 04:09:13;;;;;;;31.10;14.77;;;15.90;65.40;;;;;;4109809;28;20121;-62
2022/01/11 04:11:37;;;;;;;26.38;14.52;;;16.00;65.50;;;;;;4127245;28;20050;-62
2022/01/11 04:14:00;;;;;;;26.58;14.98;;;16.00;65.40;;;;;;4127191;28;20081;-62
2022/01/11 04:16:24;;;;;;;30.90;15.45;;;16.00;65.20;;;;;;4127578;28;20062;-62
2022/01/11 04:18:47;;;;;;;33.72;14.48;;;16.00;65.50;;;;;;4141315;28;20053;-62
2022/01/11 04:21:12;;;;;;;32.08;14.82;;;16.10;65.30;;;;;;4106951;28;20472;-62
2022/01/11 04:23:39;;;;;;;34.15;15.40;;;16.20;64.70;;;;;;4111134;28;20058;-62
2022/01/11 04:26:03;;;;;;;29.70;14.27;;;16.30;64.30;;;;;;4094841;28;20055;-62
2022/01/11 04:28:30;;;;;;;30.08;13.98;;;16.30;64.00;;;;;;4108717;28;20058;-62
2022/01/11 04:30:57;;;;;;;32.10;14.55;;;16.40;63.90;;;;;;4140225;28;20050;-62
2022/01/11 04:33:22;;;;;;;24.42;14.55;;;16.30;63.70;;;;;;4127061;28;20442;-62
2022/01/11 04:35:48;;;;;;;29.38;14.50;;;16.30;63.90;;;;;;4126979;28;20491;-62
2022/01/11 04:38:14;;;;;;;22.85;13.55;;;16.30;64.70;;;;;;4126596;28;20050;-62
2022/01/11 04:40:37;;;;;;;25.65;13.45;;;16.20;63.90;;;;;;4124335;28;20046;-62
2022/01/11 04:43:01;;;;;;;26.95;14.05;;;16.20;64.10;;;;;;4108204;28;20597;-62
2022/01/11 04:45:24;;;;;;;24.58;14.30;;;16.10;64.40;;;;;;4096167;28;20047;-62
2022/01/11 04:47:52;;;;;;;23.98;12.90;;;16.00;64.70;;;;;;4094046;28;20114;-62
2022/01/11 04:50:15;;;;;;;25.38;13.30;;;16.00;64.90;;;;;;4094326;28;20074;-63
2022/01/11 04:52:38;;;;;;;24.80;13.63;;;16.00;64.80;;;;;;4108116;28;20093;-62
2022/01/11 04:55:03;;;;;;;26.17;15.02;;;16.10;64.80;;;;;;4108450;28;20054;-62
2022/01/11 04:57:39;;;;;;;22.65;14.90;;;16.10;64.60;;;;;;4098088;28;20050;-62
2022/01/11 05:00:02;;;;;;;26.05;15.10;;;16.10;64.50;;;;;;4110805;28;20455;-62
2022/01/11 05:02:26;;;;;;;21.45;15.20;;;16.10;64.70;;;;;;4123441;28;20419;-62
2022/01/11 05:04:49;;;;;;;24.40;14.90;;;16.10;64.70;;;;;;4128108;28;20312;-62
2022/01/11 05:07:13;;;;;;;25.85;15.00;;;16.10;64.60;;;;;;4127678;28;20150;-63
2022/01/11 05:09:37;;;;;;;23.42;14.95;;;16.10;64.50;;;;;;4128025;28;20487;-62
2022/01/11 05:12:02;;;;;;;24.20;15.00;;;16.00;64.60;;;;;;4130308;28;20687;-62
2022/01/11 05:14:25;;;;;;;21.63;14.80;;;15.90;64.70;;;;;;4123516;28;20050;-62
2022/01/11 05:16:48;;;;;;;26.45;14.50;;;15.90;65.10;;;;;;4110879;28;20047;-62
2022/01/11 05:19:12;;;;;;;19.77;14.63;;;16.00;65.10;;;;;;4110460;28;20085;-62
2022/01/11 05:21:36;;;;;;;24.25;14.75;;;16.10;64.80;;;;;;4119033;28;20085;-62
2022/01/11 05:24:00;;;;;;;26.83;15.30;;;16.20;64.40;;;;;;4127827;28;20046;-62
2022/01/11 05:26:24;;;;;;;23.45;15.05;;;16.30;63.80;;;;;;4125741;28;20941;-62
2022/01/11 05:28:48;;;;;;;23.80;15.13;;;16.30;63.70;;;;;;4127658;28;20108;-62
2022/01/11 05:31:11;;;;;;;23.98;15.13;;;16.30;63.70;;;;;;4118396;28;20055;-62
2022/01/11 05:33:34;;;;;;;25.08;15.60;;;16.30;63.50;;;;;;4123662;28;20050;-62
2022/01/11 05:35:58;;;;;;;26.67;16.27;;;16.20;63.40;;;;;;4111293;28;20097;-62
2022/01/11 05:38:22;;;;;;;28.42;15.20;;;16.20;63.70;;;;;;4109696;28;20090;-62
2022/01/11 05:40:45;;;;;;;26.23;16.20;;;16.10;64.00;;;;;;4113272;28;20764;-62
2022/01/11 05:43:09;;;;;;;25.83;15.65;;;16.10;65.20;;;;;;4126204;28;20042;-62
2022/01/11 05:45:33;;;;;;;23.70;15.20;;;16.10;64.40;;;;;;4127623;28;20053;-62
2022/01/11 05:47:58;;;;;;;25.50;15.25;;;16.10;64.20;;;;;;4130820;28;20042;-62
2022/01/11 05:50:22;;;;;;;28.17;17.42;;;16.10;64.20;;;;;;4109757;28;20058;-62
2022/01/11 05:52:45;;;;;;;24.48;16.40;;;16.10;64.20;;;;;;4127209;28;20054;-62
2022/01/11 05:55:11;;;;;;;27.15;15.95;;;16.10;65.00;;;;;;4125997;28;20093;-62
2022/01/11 05:57:35;;;;;;;27.33;16.60;;;16.10;63.90;;;;;;4126909;28;20561;-63
2022/01/11 05:59:59;;;;;;;27.63;16.77;;;16.10;63.80;;;;;;4114296;28;20485;-65
2022/01/11 06:02:23;;;;;;;26.88;15.70;;;16.10;64.00;;;;;;4123547;28;20452;-65
2022/01/11 06:04:46;;;;;;;27.13;17.00;;;16.00;64.10;;;;;;4109559;28;20055;-65
2022/01/11 06:07:10;;;;;;;30.92;17.80;;;15.90;64.60;;;;;;4109763;28;20070;-66
2022/01/11 06:09:33;;;;;;;31.00;18.00;;;15.90;65.10;;;;;;4116149;28;20043;-65
2022/01/11 06:11:57;;;;;;;28.83;17.13;;;16.00;64.80;;;;;;4126824;28;20053;-65
2022/01/11 06:14:20;;;;;;;30.50;18.05;;;16.10;64.30;;;;;;4125133;28;20470;-65
2022/01/11 06:16:44;;;;;;;28.55;17.20;;;16.20;63.80;;;;;;4125806;28;20058;-65
2022/01/11 06:19:08;;;;;;;28.88;16.73;;;16.30;63.50;;;;;;4125447;28;20050;-64
2022/01/11 06:21:39;;;;;;;28.50;17.05;;;16.40;63.30;;;;;;4114797;28;20594;-65
2022/01/11 06:24:02;;;;;;;34.03;17.95;;;16.40;63.20;;;;;;4123306;28;20084;-64
2022/01/11 06:26:25;;;;;;;30.08;17.85;;;16.30;63.20;;;;;;4110834;28;20043;-65
2022/01/11 06:28:48;;;;;;;29.95;17.60;;;16.30;63.30;;;;;;4109515;28;20117;-65
2022/01/11 06:31:11;;;;;;;30.10;16.20;;;16.30;63.40;;;;;;4109515;28;20101;-65
2022/01/11 06:33:35;;;;;;;31.50;18.00;;;16.20;63.30;;;;;;4128816;28;20524;-66
2022/01/11 06:36:00;;;;;;;30.30;18.20;;;16.20;63.70;;;;;;4124864;28;20042;-65
2022/01/11 06:38:23;;;;;;;27.48;16.73;;;16.10;63.60;;;;;;4115976;28;20062;-65
2022/01/11 06:40:48;;;;;;;29.45;17.63;;;16.10;63.90;;;;;;4109253;28;20047;-66
2022/01/11 06:43:11;;;;;;;33.95;18.35;;;16.00;63.90;;;;;;4122879;28;20054;-65
2022/01/11 06:45:35;;;;;;;32.05;18.05;;;16.00;64.10;;;;;;4115788;28;20119;-65
2022/01/11 06:48:01;;;;;;;30.13;17.13;;;16.00;64.10;;;;;;4124690;28;20046;-65
2022/01/11 06:50:26;;;;;;;28.23;17.60;;;15.90;64.20;;;;;;4125052;28;20058;-65
2022/01/11 06:52:50;;;;;;;30.02;16.77;;;15.90;64.60;;;;;;4124856;28;20054;-65
2022/01/11 06:55:14;;;;;;;34.00;19.73;;;15.90;64.70;;;;;;4117180;28;20038;-65
2022/01/11 06:57:38;;;;;;;30.55;17.48;;;16.00;64.70;;;;;;4108931;28;20231;-65
2022/01/11 07:00:02;;;;;;;34.78;18.85;;;16.00;64.40;;;;;;4108812;28;20503;-65
2022/01/11 07:02:25;;;;;;;33.47;19.35;;;16.20;63.90;;;;;;4108708;28;20499;-65
2022/01/11 07:04:58;;;;;;;32.40;18.50;;;16.30;63.60;;;;;;4112535;28;20100;-66
2022/01/11 07:07:21;;;;;;;30.98;18.50;;;16.30;63.20;;;;;;4125188;28;20563;-66
2022/01/11 07:09:45;;;;;;;28.75;16.23;;;16.30;63.20;;;;;;4121275;28;20495;-66
2022/01/11 07:12:09;;;;;;;31.25;16.63;;;16.20;63.30;;;;;;4108680;28;20051;-66
2022/01/11 07:14:34;;;;;;;38.92;19.98;;;16.20;63.50;;;;;;4109186;28;20105;-64
2022/01/11 07:16:58;;;;;;;30.73;18.48;;;16.10;63.70;;;;;;4122445;28;20054;-65
2022/01/11 07:19:22;;;;;;;34.80;18.67;;;16.10;64.10;;;;;;4109899;28;20051;-64
2022/01/11 07:21:47;;;;;;;31.48;19.17;;;16.00;64.50;;;;;;4122414;28;20517;-65
2022/01/11 07:24:12;;;;;;;33.15;18.05;;;16.10;64.70;;;;;;4108543;28;20051;-65
2022/01/11 07:26:36;;;;;;;34.53;18.85;;;16.10;64.50;;;;;;4113194;28;20510;-66
2022/01/11 07:29:00;;;;;;;35.05;19.60;;;16.10;64.30;;;;;;4094152;28;20523;-66
2022/01/11 07:31:23;;;;;;;33.58;18.75;;;16.10;64.20;;;;;;4115507;28;20050;-63
2022/01/11 07:33:49;;;;;;;31.52;19.40;;;16.00;64.40;;;;;;4098270;28;20055;-62
2022/01/11 07:36:13;;;;;;;33.15;19.23;;;16.00;64.70;;;;;;4108651;28;20427;-61
2022/01/11 07:38:38;;;;;;;32.63;18.88;;;16.00;64.70;;;;;;4108751;28;20051;-61
2022/01/11 07:41:08;;;;;;;31.45;17.02;;;16.00;64.70;;;;;;4121718;28;20058;-62
2022/01/11 07:43:52;;;;;;;32.83;18.67;;;15.90;64.70;;;;;;4095539;28;20519;-62
2022/01/11 07:46:19;;;;;;;32.78;18.02;;;16.00;64.80;;;;;;4108644;28;20059;-62
2022/01/11 07:48:45;;;;;;;32.00;17.83;;;16.10;64.50;;;;;;4108580;28;20042;-60
2022/01/11 07:51:09;;;;;;;34.28;18.30;;;16.10;64.20;;;;;;4119054;28;20494;-62
2022/01/11 07:53:32;;;;;;;33.30;19.08;;;16.10;64.00;;;;;;4108511;28;20081;-62
2022/01/11 07:56:01;;;;;;;32.22;18.38;;;16.10;64.20;;;;;;4106045;28;20050;-61
2022/01/11 07:58:28;;;;;;;31.70;17.30;;;16.10;64.20;;;;;;4112425;28;20482;-61
2022/01/11 08:00:54;;;;;;;32.92;18.85;;;16.10;64.20;;;;;;4120290;28;20050;-62
2022/01/11 08:03:25;;;;;;;38.97;19.08;;;16.10;64.00;;;;;;4105998;28;20442;-62
2022/01/11 08:05:55;;;;;;;34.72;19.23;;;16.20;64.10;;;;;;4120499;28;20050;-62
2022/01/11 08:08:21;;;;;;;33.30;19.42;;;16.20;64.00;;;;;;4120614;28;20054;-62
2022/01/11 08:10:44;;;;;;;34.38;20.45;;;16.20;64.70;;;;;;4105807;28;20506;-62
2022/01/11 08:13:09;;;;;;;35.22;20.20;;;16.30;63.60;;;;;;4118756;28;20089;-62
2022/01/11 08:15:35;;;;;;;35.40;20.23;;;16.30;63.40;;;;;;4105886;28;20051;-62
2022/01/11 08:18:01;;;;;;;40.75;21.55;;;16.30;63.30;;;;;;4106002;28;20051;-62
2022/01/11 08:20:24;;;;;;;34.83;19.85;;;16.30;63.20;;;;;;4119171;28;20051;-62
2022/01/11 08:22:51;;;;;;;39.70;20.83;;;16.30;63.20;;;;;;4105796;28;20055;-62
2022/01/11 08:25:14;;;;;;;36.97;19.50;;;16.20;63.40;;;;;;4109253;28;20046;-62
2022/01/11 08:27:37;;;;;;;35.22;19.88;;;16.20;63.70;;;;;;4122339;28;20396;-63
2022/01/11 08:30:00;;;;;;;31.33;18.38;;;16.20;63.60;;;;;;4100843;28;20047;-62
2022/01/11 08:32:26;;;;;;;36.63;20.27;;;16.20;63.70;;;;;;4108433;28;20046;-62
2022/01/11 08:34:51;;;;;;;33.80;19.52;;;16.20;63.80;;;;;;4122754;28;20112;-62
2022/01/11 08:37:14;;;;;;;32.55;18.33;;;16.20;63.80;;;;;;4116245;28;20054;-67
2022/01/11 08:39:39;;;;;;;30.73;18.38;;;16.20;63.70;;;;;;4124045;28;20072;-66
2022/01/11 08:42:04;;;;;;;37.83;20.17;;;16.30;63.50;;;;;;4123222;28;20085;-65
2022/01/11 08:44:28;;;;;;;36.53;18.10;;;16.20;63.40;;;;;;4108687;28;20067;-65
2022/01/11 08:46:54;;;;;;;33.90;18.42;;;16.20;63.40;;;;;;4108344;28;20063;-64
2022/01/11 08:49:23;;;;;;;34.92;19.42;;;16.20;63.70;;;;;;4122008;28;20061;-65
2022/01/11 08:51:49;;;;;;;33.90;18.98;;;16.20;63.70;;;;;;4109003;28;20054;-65
2022/01/11 08:54:12;;;;;;;35.13;18.05;;;16.10;63.70;;;;;;4109026;28;20054;-65
2022/01/11 08:56:37;;;;;;;33.10;18.75;;;16.10;64.00;;;;;;4121811;28;20054;-64
2022/01/11 08:59:01;;;;;;;36.72;18.52;;;16.00;64.10;;;;;;4108566;28;20050;-65
2022/01/11 09:01:31;;;;;;;29.48;17.77;;;16.00;64.30;;;;;;4122064;28;20112;-65
2022/01/11 09:03:55;;;;;;;34.90;17.35;;;16.00;64.30;;;;;;4121561;28;20089;-65
2022/01/11 09:06:19;;;;;;;28.60;16.65;;;16.00;64.30;;;;;;4121709;28;20054;-65
2022/01/11 09:09:04;;;;;;;33.05;17.55;;;16.00;64.30;;;;;;4107730;28;20051;-65
2022/01/11 09:11:27;;;;;;;31.10;17.92;;;16.00;64.00;;;;;;4117626;28;20050;-65
2022/01/11 09:13:54;;;;;;;31.95;16.98;;;16.00;64.00;;;;;;4107401;28;20466;-64
2022/01/11 09:16:18;;;;;;;31.80;17.48;;;16.00;64.20;;;;;;4112898;28;20055;-65
2022/01/11 09:18:42;;;;;;;30.15;17.05;;;16.00;64.20;;;;;;4108402;28;20096;-64
2022/01/11 09:21:06;;;;;;;29.20;17.77;;;16.00;64.40;;;;;;4121425;28;20042;-65
2022/01/11 09:23:30;;;;;;;32.10;16.98;;;16.00;64.40;;;;;;4108943;28;20047;-65
2022/01/11 09:25:55;;;;;;;26.75;15.52;;;15.90;64.40;;;;;;4108426;28;20503;-65
2022/01/11 09:28:18;;;;;;;27.73;15.48;;;15.90;64.60;;;;;;4114264;28;20085;-65
2022/01/11 09:30:42;;;;;;;26.08;15.35;;;16.00;64.60;;;;;;4107769;28;20051;-65
2022/01/11 09:33:07;;;;;;;25.17;15.20;;;16.10;64.40;;;;;;4107637;28;20541;-65
2022/01/11 09:35:32;;;;;;;25.00;15.15;;;16.20;63.80;;;;;;4121213;28;20054;-65
2022/01/11 09:38:17;;;;;;;25.20;14.40;;;16.30;63.50;;;;;;4120893;28;20097;-65
2022/01/11 09:40:44;;;;;;;27.80;15.40;;;16.30;63.30;;;;;;4120959;28;20058;-66
2022/01/11 09:43:10;;;;;;;23.77;14.93;;;16.30;63.40;;;;;;4111332;28;20609;-67
2022/01/11 09:45:33;;;;;;;22.40;14.38;;;16.30;63.40;;;;;;4112873;28;20050;-66
2022/01/11 09:47:57;;;;;;;25.55;14.55;;;16.20;63.50;;;;;;4107476;28;20058;-65
2022/01/11 09:50:21;;;;;;;24.58;14.23;;;16.20;63.70;;;;;;4110125;28;20062;-66
2022/01/11 09:53:05;;;;;;;20.98;12.95;;;16.20;63.80;;;;;;4107518;28;20085;-66
2022/01/11 09:55:31;;;;;;;19.98;13.07;;;16.10;63.90;;;;;;4107985;28;20054;-66
2022/01/11 09:57:55;;;;;;;20.92;12.43;;;16.10;64.10;;;;;;4110850;28;20047;-66
2022/01/11 10:00:40;;;;;;;22.58;13.68;;;16.10;64.20;;;;;;4108938;28;20105;-66
2022/01/11 10:03:22;;;;;;;19.38;12.80;;;16.00;64.30;;;;;;4109270;28;20105;-65
2022/01/11 10:05:53;;;;;;;20.20;13.13;;;16.10;64.50;;;;;;4120738;28;20050;-65
2022/01/11 10:08:22;;;;;;;19.42;12.27;;;16.00;64.60;;;;;;4106858;28;20062;-65
2022/01/11 10:10:48;;;;;;;21.52;12.88;;;16.00;65.30;;;;;;4109425;28;20047;-66
2022/01/11 10:13:29;;;;;;;21.40;11.93;;;16.00;64.60;;;;;;4106817;28;20062;-65
2022/01/11 10:15:55;;;;;;;23.13;12.18;;;16.10;64.40;;;;;;4120079;28;20462;-64
2022/01/11 10:18:33;;;;;;;17.38;11.68;;;16.00;64.60;;;;;;4099429;28;20091;-64
2022/01/11 10:20:59;;;;;;;17.63;11.95;;;16.10;64.70;;;;;;4106163;28;20146;-65
2022/01/11 10:23:33;;;;;;;17.50;11.25;;;16.10;64.60;;;;;;4106257;28;20058;-65
2022/01/11 10:25:56;;;;;;;18.00;11.10;;;16.10;64.40;;;;;;4119748;28;20474;-67
2022/01/11 10:28:34;;;;;;;18.27;11.88;;;16.10;64.30;;;;;;4108968;28;20459;-68
2022/01/11 10:30:59;;;;;;;16.55;10.80;;;16.10;63.90;;;;;;4114555;28;20058;-67
2022/01/11 10:33:22;;;;;;;18.17;11.60;;;16.10;64.20;;;;;;4111581;28;20050;-67
2022/01/11 10:35:47;;;;;;;14.60;10.65;;;16.10;64.30;;;;;;4120363;28;20050;-67
2022/01/11 10:38:31;;;;;;;16.23;10.68;;;16.00;64.50;;;;;;4104892;28;20054;-69
2022/01/11 10:41:02;;;;;;;17.23;10.93;;;15.90;64.80;;;;;;4118494;28;20046;-68
2022/01/11 10:43:28;;;;;;;13.10;9.95;;;15.90;65.20;;;;;;4106835;28;20479;-68
2022/01/11 10:45:59;;;;;;;18.40;10.57;;;15.90;65.30;;;;;;4107375;28;20363;-67
2022/01/11 10:48:27;;;;;;;15.63;10.95;;;15.80;65.20;;;;;;4116862;28;20050;-67
2022/01/11 10:50:55;;;;;;;16.50;10.85;;;15.80;65.40;;;;;;4119768;28;20054;-67
2022/01/11 10:53:24;;;;;;;14.38;9.95;;;15.90;65.50;;;;;;4116933;28;20050;-68
2022/01/11 10:55:52;;;;;;;12.57;10.00;;;15.80;65.30;;;;;;4107564;28;20054;-67
2022/01/11 10:58:40;;;;;;;17.70;10.07;;;15.80;65.30;;;;;;4120105;28;20046;-70
2022/01/11 11:01:06;;;;;;;12.77;9.98;;;15.90;65.60;;;;;;4107390;28;20046;-67
2022/01/11 11:03:33;;;;;;;13.35;9.95;;;15.90;65.50;;;;;;4106613;28;20050;-67
2022/01/11 11:06:07;;;;;;;;;;;15.90;65.30;;;;;;4106538;28;20054;-67
2022/01/11 11:08:35;;;;;;;16.17;10.95;;;15.90;65.20;;;;;;4119898;28;19921;-67
2022/01/11 11:11:20;;;;;;;14.20;9.93;;;15.90;65.10;;;;;;4107212;28;20065;-67
2022/01/11 11:14:05;;;;;;;12.60;9.38;;;15.90;65.00;;;;;;4106887;28;20078;-67
2022/01/11 11:16:30;;;;;;;13.85;10.15;;;16.00;64.90;;;;;;4111989;28;20506;-67
2022/01/11 11:18:59;;;;;;;13.13;9.07;;;16.10;64.60;;;;;;4121746;28;20057;-68
2022/01/11 11:21:37;;;;;;;12.20;9.98;;;16.20;64.10;;;;;;4106155;28;20487;-67
2022/01/11 11:24:05;;;;;;;14.27;9.68;;;16.20;64.70;;;;;;4108058;28;20105;-67
2022/01/11 11:26:30;;;;;;;14.73;9.55;;;16.20;63.70;;;;;;4108360;28;20187;-68
2022/01/11 11:28:54;;;;;;;14.52;9.55;;;16.20;63.80;;;;;;4107546;28;20074;-68
2022/01/11 11:31:18;;;;;;;14.02;9.45;;;16.20;63.80;;;;;;4107659;28;20149;-68
2022/01/11 11:33:43;;;;;;;12.82;9.23;;;16.10;63.90;;;;;;4108180;28;20574;-67
2022/01/11 11:36:10;;;;;;;12.93;9.30;;;16.10;64.20;;;;;;4110625;28;20050;-67
2022/01/11 11:38:37;;;;;;;12.55;9.30;;;16.10;64.40;;;;;;4108694;28;20558;-67
2022/01/11 11:41:02;;;;;;;14.52;9.95;;;16.10;64.30;;;;;;4107587;28;20538;-67
2022/01/11 11:43:25;;;;;;;12.88;8.77;;;16.10;64.30;;;;;;4107644;28;20050;-67
2022/01/11 11:45:49;;;;;;;12.18;9.18;;;16.10;64.50;;;;;;4107348;28;20596;-67
2022/01/11 11:48:14;;;;;;;12.93;9.88;;;16.10;64.40;;;;;;4107964;28;22291;-67
2022/01/11 11:50:51;;;;;;;12.07;9.05;;;16.00;64.70;;;;;;4107590;28;20105;-67
2022/01/11 11:53:22;;;;;;;15.13;9.45;;;15.90;64.70;;;;;;4107114;28;20113;-68
2022/01/11 11:55:45;;;;;;;11.52;9.40;;;15.90;65.00;;;;;;4107515;28;20094;-67
2022/01/11 11:58:10;;;;;;;14.82;9.95;;;15.70;65.20;;;;;;4110655;28;20055;-67
2022/01/11 12:00:35;;;;;;;13.35;9.05;;;15.70;65.50;;;;;;4118627;28;20153;-68
2022/01/11 12:03:04;;;;;;;11.57;7.97;;;15.80;65.70;;;;;;4110444;28;20058;-67
2022/01/11 12:05:39;;;;;;;10.10;8.07;;;15.80;65.30;;;;;;4122054;28;20050;-67
2022/01/11 12:08:33;;;;;;;12.98;8.70;;;15.90;64.90;;;;;;4110735;28;20051;-67
2022/01/11 12:11:00;;;;;;;12.52;8.90;;;15.90;64.60;;;;;;4108825;28;20687;-67
2022/01/11 12:13:45;;;;;;;12.40;8.70;;;16.00;64.50;;;;;;4110048;28;20047;-67
2022/01/11 12:16:38;;;;;;;11.93;8.52;;;15.90;64.30;;;;;;4121611;28;20116;-67
2022/01/11 12:19:03;;;;;;;12.95;9.18;;;15.90;64.50;;;;;;4110889;28;20081;-66
2022/01/11 12:21:29;;;;;;;12.95;9.90;;;15.80;65.60;;;;;;4110743;28;20446;-65
2022/01/11 12:23:55;;;;;;;15.98;9.35;;;15.80;65.00;;;;;;4112206;28;20066;-65
2022/01/11 12:26:20;;;;;;;14.00;9.05;;;15.80;65.00;;;;;;4110282;28;20113;-65